createdAt,value
2023-05-03T00:02:10.635Z,1.70
2023-05-03T00:04:37.826Z,2.20
2023-05-03T00:07:04.754Z,2.00
2023-05-03T00:09:34.039Z,2.50
2023-05-03T00:12:01.717Z,3.10
2023-05-03T00:14:28.911Z,2.50
2023-05-03T00:16:56.081Z,2.80
2023-05-03T00:19:31.490Z,2.50
2023-05-03T00:21:59.319Z,2.60
2023-05-03T00:24:26.880Z,2.70
2023-05-03T00:26:53.789Z,2.50
2023-05-03T00:29:23.030Z,2.50
2023-05-03T00:31:50.177Z,2.60
2023-05-03T00:34:17.144Z,3.20
2023-05-03T00:36:44.130Z,3.00
2023-05-03T00:39:11.613Z,3.20
2023-05-03T00:41:39.134Z,3.40
2023-05-03T00:44:06.159Z,3.30
2023-05-03T00:46:33.125Z,3.20
2023-05-03T00:49:00.152Z,3.20
2023-05-03T00:51:27.947Z,3.60
2023-05-03T00:53:54.895Z,3.10
2023-05-03T00:56:23.445Z,3.50
2023-05-03T00:58:53.605Z,3.20
2023-05-03T01:01:20.667Z,3.30
2023-05-03T01:03:47.946Z,3.60
2023-05-03T01:06:18.144Z,4.20
2023-05-03T01:08:48.564Z,3.80
2023-05-03T01:11:23.398Z,3.70
2023-05-03T01:14:01.203Z,3.40
2023-05-03T01:16:49.982Z,3.70
2023-05-03T01:19:42.789Z,4.10
2023-05-03T01:22:34.230Z,5.10
2023-05-03T01:25:09.327Z,4.00
2023-05-03T01:27:36.855Z,4.00
2023-05-03T01:30:09.461Z,4.40
2023-05-03T01:32:40.285Z,4.50
2023-05-03T01:35:20.333Z,4.50
2023-05-03T01:37:48.264Z,4.80
2023-05-03T01:40:16.974Z,4.60
2023-05-03T01:42:43.820Z,4.70
2023-05-03T01:45:11.186Z,4.40
2023-05-03T01:47:38.058Z,4.20
2023-05-03T01:50:05.352Z,3.80
2023-05-03T01:52:32.576Z,4.60
2023-05-03T01:55:00.207Z,5.00
2023-05-03T01:57:27.091Z,4.90
2023-05-03T01:59:54.081Z,4.30
2023-05-03T02:02:22.509Z,7.60
2023-05-03T02:04:49.828Z,6.60
2023-05-03T02:07:16.980Z,5.00
2023-05-03T02:09:45.828Z,4.90
2023-05-03T02:12:12.979Z,4.10
2023-05-03T02:14:40.138Z,4.30
2023-05-03T02:17:08.668Z,4.30
2023-05-03T02:19:35.865Z,4.20
2023-05-03T02:22:03.173Z,5.50
2023-05-03T02:24:31.218Z,5.50
2023-05-03T02:26:58.100Z,4.60
2023-05-03T02:29:25.076Z,4.70
2023-05-03T02:31:52.566Z,4.50
2023-05-03T02:34:19.458Z,4.90
2023-05-03T02:36:47.544Z,4.90
2023-05-03T02:39:15.106Z,5.10
2023-05-03T02:41:42.142Z,5.60
2023-05-03T02:44:09.174Z,5.20
2023-05-03T02:46:36.512Z,5.00
2023-05-03T02:49:03.842Z,5.00
2023-05-03T02:51:31.201Z,4.00
2023-05-03T02:53:58.171Z,4.60
2023-05-03T02:56:26.643Z,4.70
2023-05-03T02:58:53.679Z,4.60
2023-05-03T03:01:21.821Z,4.20
2023-05-03T03:03:48.892Z,4.20
2023-05-03T03:06:16.099Z,4.50
2023-05-03T03:08:43.056Z,4.20
2023-05-03T03:11:09.968Z,4.30
2023-05-03T03:13:39.889Z,4.30
2023-05-03T03:16:07.909Z,4.40
2023-05-03T03:18:35.921Z,4.60
2023-05-03T03:21:03.446Z,4.40
2023-05-03T03:23:30.651Z,4.70
2023-05-03T03:25:58.032Z,4.90
2023-05-03T03:28:25.371Z,4.30
2023-05-03T03:30:52.676Z,4.10
2023-05-03T03:33:24.690Z,5.10
2023-05-03T03:35:52.420Z,4.60
2023-05-03T03:38:19.628Z,4.90
2023-05-03T03:40:50.476Z,4.30
2023-05-03T03:43:17.638Z,4.90
2023-05-03T03:45:45.052Z,5.20
2023-05-03T03:48:12.948Z,5.10
2023-05-03T03:50:40.058Z,5.20
2023-05-03T03:53:07.146Z,4.70
2023-05-03T03:55:34.103Z,5.30
2023-05-03T03:58:01.593Z,5.00
2023-05-03T04:00:28.998Z,4.30
2023-05-03T04:03:01.225Z,5.30
2023-05-03T04:05:28.391Z,5.20
2023-05-03T04:07:55.561Z,3.60
2023-05-03T04:10:23.555Z,4.00
2023-05-03T04:12:50.628Z,4.00
2023-05-03T04:15:17.722Z,4.20
2023-05-03T04:17:45.213Z,3.90
2023-05-03T04:20:14.002Z,3.90
2023-05-03T04:22:43.236Z,3.50
2023-05-03T04:25:14.186Z,3.30
2023-05-03T04:27:41.870Z,3.40
2023-05-03T04:30:09.838Z,3.10
2023-05-03T04:32:37.567Z,3.60
2023-05-03T04:35:10.850Z,3.90
2023-05-03T04:37:38.736Z,3.50
2023-05-03T04:40:12.303Z,3.50
2023-05-03T04:42:42.582Z,3.40
2023-05-03T04:45:10.973Z,2.40
2023-05-03T04:47:38.080Z,2.40
2023-05-03T04:50:05.944Z,2.40
2023-05-03T04:52:33.203Z,2.80
2023-05-03T04:55:00.515Z,2.20
2023-05-03T04:57:27.651Z,3.70
2023-05-03T04:59:55.211Z,2.30
2023-05-03T05:02:23.010Z,1.90
2023-05-03T05:04:50.076Z,2.10
2023-05-03T05:07:18.000Z,2.30
2023-05-03T05:09:45.331Z,2.40
2023-05-03T05:12:12.649Z,2.30
2023-05-03T05:14:41.286Z,3.60
2023-05-03T05:17:08.450Z,2.20
2023-05-03T05:19:36.073Z,2.40
2023-05-03T05:22:03.066Z,2.50
2023-05-03T05:24:38.513Z,2.50
2023-05-03T05:27:06.802Z,2.40
2023-05-03T05:29:34.127Z,2.50
2023-05-03T05:32:03.581Z,2.50
2023-05-03T05:34:39.139Z,2.70
2023-05-03T05:37:11.617Z,2.20
2023-05-03T05:39:39.141Z,2.60
2023-05-03T05:42:06.871Z,2.40
2023-05-03T05:44:34.182Z,2.50
2023-05-03T05:47:05.489Z,2.30
2023-05-03T05:49:35.079Z,2.30
2023-05-03T05:52:04.348Z,2.40
2023-05-03T05:54:31.355Z,1.80
2023-05-03T05:56:58.844Z,2.40
2023-05-03T05:59:31.530Z,2.50
2023-05-03T06:02:04.445Z,2.10
2023-05-03T06:04:32.075Z,2.00
2023-05-03T06:06:59.566Z,2.30
2023-05-03T06:09:27.098Z,3.00
2023-05-03T06:11:57.675Z,2.20
2023-05-03T06:14:27.063Z,1.80
2023-05-03T06:16:54.923Z,2.10
2023-05-03T06:19:25.412Z,2.40
2023-05-03T06:21:52.546Z,2.10
2023-05-03T06:24:21.490Z,2.00
2023-05-03T06:26:53.547Z,1.90
2023-05-03T06:29:23.057Z,1.70
2023-05-03T06:31:50.201Z,1.60
2023-05-03T06:34:20.510Z,1.70
2023-05-03T06:36:49.569Z,1.80
2023-05-03T06:39:18.591Z,1.80
2023-05-03T06:41:46.024Z,1.60
2023-05-03T06:44:13.531Z,1.80
2023-05-03T06:46:41.948Z,2.00
2023-05-03T06:49:27.004Z,1.90
2023-05-03T06:51:54.314Z,5.60
2023-05-03T06:54:29.015Z,2.40
2023-05-03T06:56:56.610Z,3.90
2023-05-03T06:59:24.662Z,11.40
2023-05-03T07:01:51.900Z,3.00
2023-05-03T07:04:19.235Z,1.90
2023-05-03T07:06:55.976Z,2.20
2023-05-03T07:09:41.530Z,2.30
2023-05-03T07:12:12.373Z,1.80
2023-05-03T07:14:40.842Z,1.30
2023-05-03T07:17:08.964Z,1.90
2023-05-03T07:19:37.676Z,2.10
2023-05-03T07:22:05.638Z,4.50
2023-05-03T07:24:33.169Z,4.10
2023-05-03T07:27:05.632Z,7.80
2023-05-03T07:29:33.206Z,3.30
2023-05-03T07:32:00.405Z,2.00
2023-05-03T07:34:30.799Z,3.20
2023-05-03T07:36:58.304Z,1.70
2023-05-03T07:39:25.337Z,1.70
2023-05-03T07:41:52.559Z,1.60
2023-05-03T07:44:19.639Z,1.50
2023-05-03T07:46:46.734Z,11.50
2023-05-03T07:49:13.970Z,2.70
2023-05-03T07:51:41.834Z,3.30
2023-05-03T07:54:09.106Z,2.30
2023-05-03T07:56:36.690Z,2.80
2023-05-03T07:59:09.916Z,2.60
2023-05-03T08:01:38.311Z,2.30
2023-05-03T08:04:09.262Z,4.00
2023-05-03T08:06:38.724Z,3.00
2023-05-03T08:09:06.053Z,1.60
2023-05-03T08:11:33.226Z,2.00
2023-05-03T08:14:00.379Z,1.60
2023-05-03T08:16:27.707Z,1.80
2023-05-03T08:18:54.754Z,1.90
2023-05-03T08:21:24.888Z,1.80
2023-05-03T08:23:52.635Z,2.00
2023-05-03T08:26:19.780Z,2.10
2023-05-03T08:28:47.973Z,1.60
2023-05-03T08:31:15.264Z,2.30
2023-05-03T08:33:43.040Z,2.30
2023-05-03T08:36:13.346Z,3.20
2023-05-03T08:38:41.515Z,2.20
2023-05-03T08:41:17.608Z,2.20
2023-05-03T08:43:47.891Z,2.10
2023-05-03T08:46:18.773Z,1.90
2023-05-03T08:48:50.063Z,3.40
2023-05-03T08:51:17.640Z,2.10
2023-05-03T08:53:46.528Z,2.40
2023-05-03T08:56:29.812Z,2.20
2023-05-03T08:58:57.428Z,2.40
2023-05-03T09:01:24.633Z,2.50
2023-05-03T09:03:52.240Z,2.30
2023-05-03T09:06:27.866Z,2.10
2023-05-03T09:08:55.617Z,3.60
2023-05-03T09:11:32.621Z,2.00
2023-05-03T09:14:15.780Z,1.80
2023-05-03T09:16:46.469Z,2.00
2023-05-03T09:19:14.822Z,1.80
2023-05-03T09:21:42.973Z,2.20
2023-05-03T09:24:28.273Z,2.30
2023-05-03T09:26:58.643Z,2.40
2023-05-03T09:29:31.829Z,1.90
2023-05-03T09:32:06.065Z,2.10
2023-05-03T09:34:34.697Z,2.10
2023-05-03T09:37:02.140Z,2.00
2023-05-03T09:39:29.626Z,2.00
2023-05-03T09:41:56.752Z,2.20
2023-05-03T09:44:52.003Z,2.30
2023-05-03T09:47:19.070Z,2.70
2023-05-03T09:49:46.253Z,2.60
2023-05-03T09:52:13.371Z,2.40
2023-05-03T09:54:41.040Z,2.50
2023-05-03T09:57:15.583Z,2.30
2023-05-03T09:59:46.006Z,1.90
2023-05-03T10:02:19.653Z,2.00
2023-05-03T10:04:52.052Z,4.70
2023-05-03T10:07:19.600Z,2.20
2023-05-03T10:09:49.908Z,2.20
2023-05-03T10:12:17.891Z,2.10
2023-05-03T10:14:46.864Z,2.20
2023-05-03T10:17:42.910Z,2.80
2023-05-03T10:20:30.380Z,2.30
2023-05-03T10:23:07.251Z,2.30
2023-05-03T10:25:36.079Z,1.90
2023-05-03T10:28:10.322Z,2.80
2023-05-03T10:30:39.899Z,2.10
2023-05-03T10:33:10.006Z,2.30
2023-05-03T10:35:42.221Z,2.10
2023-05-03T10:38:29.042Z,2.20
2023-05-03T10:40:56.693Z,2.30
2023-05-03T10:43:33.149Z,2.40
2023-05-03T10:46:05.201Z,2.20
2023-05-03T10:48:33.554Z,2.30
2023-05-03T10:51:42.344Z,2.30
2023-05-03T10:54:13.162Z,2.60
2023-05-03T10:56:54.506Z,2.20
2023-05-03T10:59:22.381Z,2.30
2023-05-03T11:01:53.425Z,2.20
2023-05-03T11:04:34.087Z,2.40
2023-05-03T11:07:02.013Z,2.30
2023-05-03T11:09:33.599Z,2.40
2023-05-03T11:12:11.501Z,1.90
2023-05-03T11:14:42.473Z,2.60
2023-05-03T11:17:09.737Z,2.50
2023-05-03T11:19:38.052Z,2.40
2023-05-03T11:22:09.889Z,2.50
2023-05-03T11:24:40.364Z,2.70
2023-05-03T11:27:12.064Z,2.70
2023-05-03T11:29:45.805Z,2.50
2023-05-03T11:32:16.285Z,2.30
2023-05-03T11:34:43.832Z,2.30
2023-05-03T11:37:11.130Z,2.20
2023-05-03T11:39:38.615Z,2.40
2023-05-03T11:42:08.946Z,2.10
2023-05-03T11:44:37.984Z,3.10
2023-05-03T11:47:06.285Z,2.60
2023-05-03T11:49:34.484Z,2.10
2023-05-03T11:52:06.484Z,2.60
2023-05-03T11:54:38.092Z,2.30
2023-05-03T11:57:12.566Z,1.80
2023-05-03T12:02:10.675Z,2.00
2023-05-03T12:04:42.181Z,2.10
2023-05-03T12:07:11.282Z,3.00
2023-05-03T12:09:40.219Z,2.70
2023-05-03T12:12:10.715Z,2.90
2023-05-03T12:15:00.138Z,2.50
2023-05-03T12:18:00.138Z,2.30
2023-05-03T12:23:04.189Z,2.00
2023-05-03T12:25:38.822Z,2.20
2023-05-03T12:30:40.417Z,2.10
2023-05-03T12:33:11.230Z,2.20
2023-05-03T12:35:40.777Z,2.20
2023-05-03T12:38:09.645Z,2.10
2023-05-03T12:40:37.816Z,2.60
2023-05-03T12:43:05.449Z,2.10
2023-05-03T12:45:46.514Z,2.20
2023-05-03T12:48:17.775Z,2.10
2023-05-03T12:50:45.832Z,2.20
2023-05-03T12:53:17.552Z,2.40
2023-05-03T12:55:49.538Z,2.30
2023-05-03T13:01:37.081Z,2.50
2023-05-03T13:03:43.036Z,2.40
2023-05-03T13:06:19.770Z,2.50
2023-05-03T13:09:19.321Z,2.30
2023-05-03T13:15:10.609Z,2.40
2023-05-03T13:17:38.177Z,2.50
2023-05-03T13:20:07.752Z,2.30
2023-05-03T13:22:35.003Z,2.90
2023-05-03T13:25:03.772Z,2.30
2023-05-03T13:27:31.204Z,2.40
2023-05-03T13:29:58.412Z,2.50
2023-05-03T13:32:26.031Z,2.20
2023-05-03T13:34:53.176Z,2.80
2023-05-03T13:37:20.713Z,2.30
2023-05-03T13:39:47.943Z,2.90
2023-05-03T13:42:16.052Z,2.20
2023-05-03T13:44:50.497Z,2.10
2023-05-03T13:47:17.778Z,1.90
2023-05-03T13:49:44.963Z,2.30
2023-05-03T13:52:12.433Z,2.90
2023-05-03T13:54:39.648Z,2.50
2023-05-03T13:57:11.113Z,2.10
2023-05-03T13:59:38.387Z,2.20
2023-05-03T14:02:05.738Z,2.20
2023-05-03T14:04:32.945Z,2.20
2023-05-03T14:07:03.033Z,2.50
2023-05-03T14:09:30.847Z,2.30
2023-05-03T14:11:58.049Z,2.40
2023-05-03T14:14:27.237Z,2.50
2023-05-03T14:16:54.572Z,2.20
2023-05-03T14:19:24.897Z,2.10
2023-05-03T14:21:55.215Z,3.30
2023-05-03T14:24:22.521Z,2.50
2023-05-03T14:26:49.535Z,2.50
2023-05-03T14:29:16.680Z,2.70
2023-05-03T14:38:26.048Z,2.80
2023-05-03T14:43:59.451Z,2.50
2023-05-03T14:46:36.586Z,2.40
2023-05-03T14:52:17.392Z,2.80
2023-05-03T15:01:44.437Z,2.40
2023-05-03T15:04:12.096Z,3.30
2023-05-03T15:06:39.832Z,2.40
2023-05-03T15:09:08.652Z,2.60
2023-05-03T15:11:35.614Z,2.30
2023-05-03T15:14:05.344Z,2.30
2023-05-03T15:16:32.316Z,1.90
2023-05-03T15:19:00.654Z,2.90
2023-05-03T15:21:28.609Z,2.40
2023-05-03T15:23:55.650Z,2.10
2023-05-03T15:26:22.784Z,2.40
2023-05-03T15:28:50.196Z,2.60
2023-05-03T15:31:17.703Z,2.60
2023-05-03T15:33:45.022Z,2.20
2023-05-03T15:36:12.692Z,2.70
2023-05-03T15:38:40.680Z,2.50
2023-05-03T15:41:08.841Z,2.60
2023-05-03T15:43:41.041Z,2.40
2023-05-03T15:46:08.389Z,2.30
2023-05-03T15:48:35.398Z,2.40
2023-05-03T15:51:02.546Z,2.10
2023-05-03T15:53:30.005Z,2.00
2023-05-03T15:55:57.756Z,2.40
2023-05-03T15:58:25.557Z,2.20
2023-05-03T16:00:52.925Z,2.70
2023-05-03T16:03:21.862Z,2.50
2023-05-03T16:05:48.906Z,2.60
2023-05-03T16:08:15.976Z,2.30
2023-05-03T16:10:43.037Z,2.50
2023-05-03T16:13:10.600Z,2.50
2023-05-03T16:15:38.198Z,1.90
2023-05-03T16:18:05.562Z,3.20
2023-05-03T16:20:32.822Z,2.40
2023-05-03T16:22:59.846Z,2.40
2023-05-03T16:25:28.694Z,2.70
2023-05-03T16:27:55.768Z,2.70
2023-05-03T16:30:22.848Z,2.30
2023-05-03T16:32:49.794Z,2.20
2023-05-03T16:35:16.748Z,2.20
2023-05-03T16:37:43.827Z,2.30
2023-05-03T16:40:11.633Z,2.40
2023-05-03T16:42:39.183Z,2.20
2023-05-03T16:45:10.905Z,2.50
2023-05-03T16:47:38.356Z,2.50
2023-05-03T16:50:07.901Z,2.70
2023-05-03T16:52:43.462Z,2.50
2023-05-03T16:55:11.112Z,2.70
2023-05-03T16:57:38.184Z,2.40
2023-05-03T17:00:09.564Z,2.40
2023-05-03T17:02:37.689Z,2.30
2023-05-03T17:05:05.312Z,2.30
2023-05-03T17:07:33.206Z,2.60
2023-05-03T17:10:00.647Z,2.50
2023-05-03T17:12:28.766Z,2.60
2023-05-03T17:14:55.772Z,2.40
2023-05-03T17:17:22.921Z,2.80
2023-05-03T17:19:53.795Z,3.00
2023-05-03T17:22:21.038Z,2.80
2023-05-03T17:24:48.052Z,3.00
2023-05-03T17:27:15.171Z,3.00
2023-05-03T17:29:45.467Z,2.70
2023-05-03T17:32:12.456Z,2.60
2023-05-03T17:34:40.015Z,2.80
2023-05-03T17:37:07.183Z,2.60
2023-05-03T17:39:34.178Z,2.90
2023-05-03T17:42:01.726Z,2.60
2023-05-03T17:44:29.015Z,2.20
2023-05-03T17:46:56.086Z,2.30
2023-05-03T17:49:23.609Z,2.50
2023-05-03T17:51:50.667Z,2.30
2023-05-03T17:54:17.737Z,2.70
2023-05-03T17:56:45.191Z,2.30
2023-05-03T17:59:12.090Z,2.70
2023-05-03T18:01:39.059Z,2.30
2023-05-03T18:04:06.050Z,2.70
2023-05-03T18:06:33.199Z,2.60
2023-05-03T18:09:00.164Z,2.80
2023-05-03T18:11:27.379Z,3.10
2023-05-03T18:13:54.401Z,2.80
2023-05-03T18:16:21.403Z,3.00
2023-05-03T18:18:48.527Z,2.70
2023-05-03T18:21:15.544Z,2.50
2023-05-03T18:23:44.294Z,2.80
2023-05-03T18:26:11.491Z,2.30
2023-05-03T18:28:38.492Z,2.70
2023-05-03T18:31:05.549Z,2.70
2023-05-03T18:33:32.959Z,3.00
2023-05-03T18:35:59.923Z,2.80
2023-05-03T18:38:26.971Z,2.60
2023-05-03T18:40:55.934Z,2.80
2023-05-03T18:43:22.964Z,2.70
2023-05-03T18:45:50.013Z,3.10
2023-05-03T18:48:17.098Z,3.00
2023-05-03T18:50:44.238Z,3.40
2023-05-03T18:53:11.240Z,3.30
2023-05-03T18:55:38.407Z,3.50
2023-05-03T18:58:05.681Z,2.70
2023-05-03T19:00:32.596Z,3.00
2023-05-03T19:02:59.614Z,2.60
2023-05-03T19:05:26.698Z,3.50
2023-05-03T19:07:53.565Z,2.90
2023-05-03T19:10:21.080Z,3.30
2023-05-03T19:12:48.154Z,3.10
2023-05-03T19:15:15.253Z,3.30
2023-05-03T19:17:42.680Z,2.70
2023-05-03T19:20:12.520Z,2.90
2023-05-03T19:22:39.464Z,3.00
2023-05-03T19:25:06.873Z,3.20
2023-05-03T19:27:33.881Z,2.50
2023-05-03T19:30:00.837Z,3.00
2023-05-03T19:32:27.858Z,3.70
2023-05-03T19:34:54.827Z,3.90
2023-05-03T19:37:21.915Z,3.80
2023-05-03T19:39:48.847Z,4.20
2023-05-03T19:42:16.127Z,4.30
2023-05-03T19:44:43.053Z,4.70
2023-05-03T19:47:10.215Z,4.90
2023-05-03T19:49:37.804Z,4.90
2023-05-03T19:52:06.097Z,5.00
2023-05-03T19:54:33.291Z,4.80
2023-05-03T19:57:06.124Z,5.10
2023-05-03T19:59:33.449Z,4.90
2023-05-03T20:02:00.436Z,7.30
2023-05-03T20:04:27.684Z,5.00
2023-05-03T20:06:54.689Z,5.10
2023-05-03T20:09:23.486Z,5.10
2023-05-03T20:11:55.825Z,4.90
2023-05-03T20:14:22.957Z,4.50
2023-05-03T20:16:49.800Z,6.40
2023-05-03T20:19:16.693Z,6.60
2023-05-03T20:21:44.722Z,6.70
2023-05-03T20:24:11.659Z,6.30
2023-05-03T20:26:38.725Z,6.70
2023-05-03T20:29:05.779Z,7.20
2023-05-03T20:31:33.025Z,8.60
2023-05-03T20:34:00.479Z,8.30
2023-05-03T20:36:28.088Z,8.60
2023-05-03T20:38:55.711Z,8.70
2023-05-03T20:41:23.108Z,9.20
2023-05-03T20:43:52.015Z,9.60
2023-05-03T20:46:19.244Z,8.00
2023-05-03T20:48:46.304Z,7.20
2023-05-03T20:51:13.491Z,8.00
2023-05-03T20:53:40.389Z,8.80
2023-05-03T20:56:08.047Z,7.90
2023-05-03T20:58:35.129Z,7.00
2023-05-03T21:01:06.622Z,8.30
2023-05-03T21:03:33.779Z,7.10
2023-05-03T21:06:00.891Z,7.00
2023-05-03T21:08:27.817Z,8.20
2023-05-03T21:10:55.171Z,7.20
2023-05-03T21:13:22.212Z,5.60
2023-05-03T21:15:50.826Z,6.30
2023-05-03T21:18:18.783Z,5.70
2023-05-03T21:20:45.906Z,5.50
2023-05-03T21:23:13.488Z,5.70
2023-05-03T21:25:40.462Z,5.70
2023-05-03T21:28:07.435Z,6.10
2023-05-03T21:30:34.371Z,5.30
2023-05-03T21:33:01.251Z,5.10
2023-05-03T21:35:28.296Z,4.70
2023-05-03T21:37:55.169Z,5.10
2023-05-03T21:40:22.643Z,4.70
2023-05-03T21:42:50.979Z,4.50
2023-05-03T21:45:17.938Z,4.50
2023-05-03T21:47:45.134Z,4.50
2023-05-03T21:50:13.044Z,4.40
2023-05-03T21:52:40.558Z,4.40
2023-05-03T21:55:08.469Z,4.30
2023-05-03T21:57:35.722Z,4.10
2023-05-03T22:00:02.760Z,3.40
2023-05-03T22:02:35.417Z,3.50
2023-05-03T22:05:02.793Z,3.60
2023-05-03T22:07:29.825Z,4.30
2023-05-03T22:09:56.736Z,5.00
2023-05-03T22:12:24.784Z,5.50
2023-05-03T22:14:52.853Z,4.90
2023-05-03T22:17:19.931Z,5.70
2023-05-03T22:19:47.129Z,5.50
2023-05-03T22:22:14.068Z,5.70
2023-05-03T22:24:41.323Z,5.00
2023-05-03T22:27:08.298Z,5.40
2023-05-03T22:29:35.178Z,5.50
2023-05-03T22:32:02.961Z,5.30
2023-05-03T22:34:30.000Z,5.00
2023-05-03T22:36:57.062Z,4.80
2023-05-03T22:39:24.011Z,5.20
2023-05-03T22:41:50.902Z,5.20
2023-05-03T22:44:17.987Z,5.90
2023-05-03T22:46:44.948Z,6.00
2023-05-03T22:49:11.920Z,5.90
2023-05-03T22:51:38.888Z,6.50
2023-05-03T22:54:05.964Z,6.10
2023-05-03T22:56:33.153Z,5.90
2023-05-03T22:58:59.988Z,6.50
2023-05-03T23:01:27.030Z,6.30
2023-05-03T23:03:54.104Z,6.90
2023-05-03T23:06:21.156Z,6.40
2023-05-03T23:08:48.052Z,6.20
2023-05-03T23:11:15.188Z,5.90
2023-05-03T23:13:42.298Z,4.90
2023-05-03T23:16:09.533Z,5.90
2023-05-03T23:18:36.882Z,5.10
2023-05-03T23:21:04.446Z,5.30
2023-05-03T23:23:31.511Z,5.70
2023-05-03T23:25:58.386Z,5.40
2023-05-03T23:28:26.104Z,5.00
2023-05-03T23:30:53.474Z,5.40
2023-05-03T23:33:20.928Z,5.60
2023-05-03T23:35:48.869Z,5.20
2023-05-03T23:38:15.866Z,4.80
2023-05-03T23:40:42.753Z,5.40
2023-05-03T23:43:09.655Z,5.60
2023-05-03T23:45:36.628Z,5.20
2023-05-03T23:48:03.646Z,5.10
2023-05-03T23:50:30.904Z,4.60
2023-05-03T23:52:58.798Z,5.00
2023-05-03T23:55:25.706Z,4.90
2023-05-03T23:57:52.667Z,5.00
